Time;durP1;ratioP1;P1;durP2;ratioP2;P2;SDS_P1;SDS_P2;PMS_P1;PMS_P2;Temp;Humidity;BMP_temperature;BMP_pressure;BME280_temperature;BME280_humidity;BME280_pressure;Samples;Min_cycle;Max_cycle;Signal;HPM_P1;HPM_P2
2021/12/26 00:00:17;;;;;;;0.43;0.13;;;;;;;;;;4214897;28;20055;-41
2021/12/26 00:02:18;;;;;;;0.15;0.10;;;;;;;;;;4196438;28;20048;-42
2021/12/26 00:04:19;;;;;;;0.30;0.30;;;;;;;;;;4214577;28;20090;-41
2021/12/26 00:06:28;;;;;;;0.13;0.10;;;;;;;;;;4214513;28;20105;-42
2021/12/26 00:08:29;;;;;;;0.30;0.20;;;;;;;;;;4214275;28;20125;-41
2021/12/26 00:10:30;;;;;;;0.17;0.17;;;;;;;;;;4214765;28;20056;-42
2021/12/26 00:12:31;;;;;;;0.20;0.20;;;;;;;;;;4214323;28;20071;-41
2021/12/26 00:14:32;;;;;;;0.17;0.10;;;;;;;;;;4214357;28;20052;-41
2021/12/26 00:16:33;;;;;;;0.10;0.10;;;;;;;;;;4214645;28;20043;-42
2021/12/26 00:18:35;;;;;;;0.17;0.10;;;;;;;;;;4214333;28;20044;-41
2021/12/26 00:20:36;;;;;;;0.30;0.13;;;;;;;;;;4214303;28;20078;-41
2021/12/26 00:22:38;;;;;;;0.10;0.10;;;;;;;;;;4195711;28;20078;-42
2021/12/26 00:24:39;;;;;;;0.28;0.10;;;;;;;;;;4214151;28;20105;-41
2021/12/26 00:26:40;;;;;;;0.35;0.20;;;;;;;;;;4214063;28;20098;-42
2021/12/26 00:28:41;;;;;;;0.20;0.10;;;;;;;;;;4196430;28;20174;-41
2021/12/26 00:30:43;;;;;;;0.32;0.28;;;;;;;;;;4214202;28;20191;-41
2021/12/26 00:32:45;;;;;;;0.00;0.00;;;;;;;;;;4195971;28;20057;-41
2021/12/26 00:34:50;;;;;;;0.10;0.10;;;;;;;;;;4213972;28;20040;-41
2021/12/26 00:36:51;;;;;;;0.32;0.20;;;;;;;;;;4195417;28;20048;-42
2021/12/26 00:38:52;;;;;;;0.10;0.10;;;;;;;;;;4213935;28;20082;-41
2021/12/26 00:40:53;;;;;;;0.20;0.10;;;;;;;;;;4213871;28;20341;-42
2021/12/26 00:42:54;;;;;;;0.30;0.22;;;;;;;;;;4213031;28;20044;-42
2021/12/26 00:44:56;;;;;;;0.30;0.13;;;;;;;;;;4214127;28;20146;-42
2021/12/26 00:46:57;;;;;;;0.47;0.10;;;;;;;;;;4213818;28;20056;-41
2021/12/26 00:48:58;;;;;;;0.10;0.10;;;;;;;;;;4195878;28;20472;-42
2021/12/26 00:50:59;;;;;;;0.30;0.20;;;;;;;;;;4179257;28;20057;-41
2021/12/26 00:53:00;;;;;;;0.40;0.22;;;;;;;;;;4213409;28;20052;-41
2021/12/26 00:55:02;;;;;;;0.28;0.10;;;;;;;;;;4213757;28;20475;-41
2021/12/26 00:57:04;;;;;;;0.20;0.10;;;;;;;;;;4213592;28;20048;-42
2021/12/26 00:59:05;;;;;;;0.35;0.20;;;;;;;;;;4213720;28;20052;-41
2021/12/26 01:01:07;;;;;;;0.10;0.10;;;;;;;;;;4213688;28;20393;-41
2021/12/26 01:03:09;;;;;;;0.10;0.10;;;;;;;;;;4195581;28;20060;-33
2021/12/26 01:05:10;;;;;;;0.20;0.20;;;;;;;;;;4195888;28;20056;-33
2021/12/26 01:07:27;;;;;;;1.17;0.20;;;;;;;;;;4213229;28;20052;-34
2021/12/26 01:09:29;;;;;;;0.22;0.10;;;;;;;;;;4195797;28;20079;-33
2021/12/26 01:11:37;;;;;;;0.22;0.20;;;;;;;;;;4195633;28;20052;-33
2021/12/26 01:13:39;;;;;;;0.10;0.10;;;;;;;;;;4195769;28;20056;-34
2021/12/26 01:15:57;;;;;;;0.38;0.20;;;;;;;;;;4195805;28;20480;-33
2021/12/26 01:18:00;;;;;;;0.13;0.10;;;;;;;;;;4195756;28;20102;-34
2021/12/26 01:20:08;;;;;;;0.40;0.10;;;;;;;;;;4195602;28;20044;-34
2021/12/26 01:22:12;;;;;;;0.17;0.17;;;;;;;;;;4195213;28;20405;-33
2021/12/26 01:24:15;;;;;;;0.20;0.20;;;;;;;;;;4195491;28;20067;-33
2021/12/26 01:26:17;;;;;;;0.10;0.10;;;;;;;;;;4213654;28;20048;-35
2021/12/26 01:28:19;;;;;;;0.15;0.15;;;;;;;;;;4213454;28;20102;-34
2021/12/26 01:30:20;;;;;;;0.17;0.15;;;;;;;;;;4213610;28;20052;-34
2021/12/26 01:32:25;;;;;;;0.38;0.20;;;;;;;;;;4195443;28;20485;-33
2021/12/26 01:34:29;;;;;;;0.10;0.10;;;;;;;;;;4213309;28;20060;-33
2021/12/26 01:37:00;;;;;;;0.15;0.15;;;;;;;;;;4144855;28;20057;-34
2021/12/26 01:39:32;;;;;;;0.20;0.15;;;;;;;;;;4195370;28;20052;-34
2021/12/26 01:41:45;;;;;;;0.40;0.20;;;;;;;;;;4195383;28;20326;-33
2021/12/26 01:43:52;;;;;;;0.20;0.20;;;;;;;;;;4213433;28;20056;-32
2021/12/26 01:46:09;;;;;;;0.13;0.10;;;;;;;;;;4195762;28;20057;-34
2021/12/26 01:48:12;;;;;;;0.10;0.10;;;;;;;;;;4195402;28;20094;-34
2021/12/26 01:50:19;;;;;;;0.20;0.10;;;;;;;;;;4195399;28;20105;-33
2021/12/26 01:52:22;;;;;;;0.30;0.10;;;;;;;;;;4195047;28;20052;-34
2021/12/26 01:54:31;;;;;;;0.28;0.20;;;;;;;;;;4198189;28;20044;-33
2021/12/26 01:56:33;;;;;;;0.10;0.10;;;;;;;;;;4198686;28;20416;-33
2021/12/26 01:58:36;;;;;;;0.35;0.30;;;;;;;;;;4198757;28;20053;-33
2021/12/26 02:00:45;;;;;;;0.20;0.20;;;;;;;;;;4183059;28;20047;-33
2021/12/26 02:02:47;;;;;;;0.10;0.10;;;;;;;;;;4198691;28;20056;-33
2021/12/26 02:04:49;;;;;;;0.10;0.10;;;;;;;;;;4198669;28;20061;-33
2021/12/26 02:06:50;;;;;;;0.10;0.10;;;;;;;;;;4197922;28;20097;-33
2021/12/26 02:08:51;;;;;;;0.32;0.25;;;;;;;;;;4198633;28;20091;-33
2021/12/26 02:10:52;;;;;;;0.10;0.10;;;;;;;;;;4198736;28;20048;-33
2021/12/26 02:12:53;;;;;;;0.10;0.10;;;;;;;;;;4198322;28;20052;-33
2021/12/26 02:14:54;;;;;;;0.20;0.20;;;;;;;;;;4198339;28;20053;-33
2021/12/26 02:17:02;;;;;;;0.10;0.10;;;;;;;;;;4198054;28;20569;-33
2021/12/26 02:19:04;;;;;;;0.13;0.10;;;;;;;;;;4198294;28;20044;-33
2021/12/26 02:23:36;;;;;;;0.32;0.20;;;;;;;;;;4197627;28;20480;-33
2021/12/26 02:27:46;;;;;;;0.28;0.20;;;;;;;;;;4215983;28;20052;-33
2021/12/26 02:29:48;;;;;;;0.10;0.10;;;;;;;;;;4198096;28;20052;-32
2021/12/26 02:31:50;;;;;;;0.22;0.10;;;;;;;;;;4198365;28;20492;-32
2021/12/26 02:33:51;;;;;;;0.10;0.10;;;;;;;;;;4215928;28;20094;-33
2021/12/26 02:35:53;;;;;;;0.20;0.20;;;;;;;;;;4216171;28;20169;-33
2021/12/26 02:37:54;;;;;;;0.30;0.20;;;;;;;;;;4197583;28;20045;-33
2021/12/26 02:39:56;;;;;;;0.13;0.10;;;;;;;;;;4215835;28;20488;-34
2021/12/26 02:41:57;;;;;;;0.13;0.10;;;;;;;;;;4197868;28;20079;-33
2021/12/26 02:43:58;;;;;;;0.25;0.20;;;;;;;;;;4198032;28;20049;-34
2021/12/26 02:46:05;;;;;;;0.10;0.10;;;;;;;;;;4197845;28;20053;-33
2021/12/26 02:48:07;;;;;;;0.17;0.10;;;;;;;;;;4197685;28;20106;-33
2021/12/26 02:50:12;;;;;;;0.35;0.20;;;;;;;;;;4197762;28;20052;-33
2021/12/26 02:52:12;;;;;;;0.55;0.20;;;;;;;;;;4197269;28;20395;-34
2021/12/26 02:54:13;;;;;;;0.15;0.10;;;;;;;;;;4215918;28;20101;-33
2021/12/26 02:56:15;;;;;;;0.30;0.17;;;;;;;;;;4215689;28;20088;-33
2021/12/26 02:58:16;;;;;;;0.10;0.10;;;;;;;;;;4197625;28;20045;-34
2021/12/26 03:00:18;;;;;;;0.20;0.20;;;;;;;;;;4197745;28;20408;-34
2021/12/26 03:02:19;;;;;;;0.10;0.10;;;;;;;;;;4197363;28;20056;-34
2021/12/26 03:04:20;;;;;;;0.10;0.10;;;;;;;;;;4215300;28;20052;-34
2021/12/26 03:06:35;;;;;;;0.10;0.10;;;;;;;;;;4197141;28;20488;-33
2021/12/26 03:08:36;;;;;;;0.65;0.20;;;;;;;;;;4197346;28;20060;-34
2021/12/26 03:10:39;;;;;;;0.30;0.20;;;;;;;;;;4215451;28;20505;-33
2021/12/26 03:12:41;;;;;;;0.15;0.10;;;;;;;;;;4215480;28;20052;-34
2021/12/26 03:14:42;;;;;;;0.40;0.20;;;;;;;;;;4215475;28;20048;-33
2021/12/26 03:16:49;;;;;;;0.20;0.10;;;;;;;;;;4180654;28;20057;-34
2021/12/26 03:18:55;;;;;;;0.65;0.20;;;;;;;;;;4215585;28;20044;-33
2021/12/26 03:20:56;;;;;;;0.13;0.13;;;;;;;;;;4197323;28;20449;-34
2021/12/26 03:22:59;;;;;;;0.10;0.10;;;;;;;;;;4196661;28;20132;-34
2021/12/26 03:25:00;;;;;;;0.10;0.10;;;;;;;;;;4215365;28;20137;-33
2021/12/26 03:27:03;;;;;;;0.10;0.10;;;;;;;;;;4197379;28;20053;-33
2021/12/26 03:29:03;;;;;;;0.10;0.10;;;;;;;;;;4197450;28;20052;-33
2021/12/26 03:31:04;;;;;;;0.00;0.00;;;;;;;;;;4197242;28;20095;-34
2021/12/26 03:33:10;;;;;;;0.10;0.10;;;;;;;;;;4197349;28;20056;-33
2021/12/26 03:35:11;;;;;;;0.22;0.20;;;;;;;;;;4197379;28;20049;-33
2021/12/26 03:37:12;;;;;;;0.10;0.10;;;;;;;;;;4196898;28;20064;-33
2021/12/26 03:39:14;;;;;;;0.20;0.20;;;;;;;;;;4196962;28;20400;-34
2021/12/26 03:41:14;;;;;;;0.10;0.10;;;;;;;;;;4197130;28;20048;-33
2021/12/26 03:43:21;;;;;;;0.10;0.10;;;;;;;;;;4197133;28;20155;-33
2021/12/26 03:45:22;;;;;;;0.60;0.38;;;;;;;;;;4198320;28;20059;-33
2021/12/26 03:47:24;;;;;;;0.28;0.20;;;;;;;;;;4198043;28;20052;-33
2021/12/26 03:49:26;;;;;;;0.10;0.10;;;;;;;;;;4197205;28;20049;-33
2021/12/26 03:51:27;;;;;;;0.10;0.10;;;;;;;;;;4198013;28;20056;-33
2021/12/26 03:53:29;;;;;;;0.10;0.10;;;;;;;;;;4197402;28;20125;-34
2021/12/26 03:55:30;;;;;;;0.22;0.10;;;;;;;;;;4179761;28;20045;-34
2021/12/26 03:57:31;;;;;;;0.10;0.10;;;;;;;;;;4180117;28;20480;-34
2021/12/26 03:59:32;;;;;;;0.10;0.10;;;;;;;;;;4180062;28;20420;-33
2021/12/26 04:01:33;;;;;;;0.17;0.10;;;;;;;;;;4197992;28;20047;-33
2021/12/26 04:03:35;;;;;;;0.10;0.10;;;;;;;;;;4180277;28;20075;-33
2021/12/26 04:05:37;;;;;;;0.50;0.17;;;;;;;;;;4196596;28;20072;-33
2021/12/26 04:07:39;;;;;;;0.22;0.10;;;;;;;;;;4179568;28;20567;-33
2021/12/26 04:09:40;;;;;;;0.10;0.10;;;;;;;;;;4196646;28;20052;-34
2021/12/26 04:11:44;;;;;;;0.22;0.20;;;;;;;;;;4179855;28;20045;-33
2021/12/26 04:13:45;;;;;;;0.10;0.10;;;;;;;;;;4196478;28;20044;-34
2021/12/26 04:15:47;;;;;;;0.32;0.20;;;;;;;;;;4179643;28;20410;-33
2021/12/26 04:17:51;;;;;;;0.10;0.10;;;;;;;;;;4195700;28;20045;-33
2021/12/26 04:19:52;;;;;;;0.20;0.10;;;;;;;;;;4163745;28;20160;-34
2021/12/26 04:21:53;;;;;;;0.20;0.15;;;;;;;;;;4195693;28;20484;-33
2021/12/26 04:23:54;;;;;;;0.10;0.10;;;;;;;;;;4197412;28;20412;-34
2021/12/26 04:25:55;;;;;;;0.10;0.10;;;;;;;;;;4197808;28;20056;-34
2021/12/26 04:27:56;;;;;;;0.15;0.10;;;;;;;;;;4196230;28;20078;-33
2021/12/26 04:29:58;;;;;;;0.30;0.20;;;;;;;;;;4179694;28;20543;-33
2021/12/26 04:31:59;;;;;;;0.15;0.10;;;;;;;;;;4196203;28;20060;-33
2021/12/26 04:34:00;;;;;;;0.13;0.10;;;;;;;;;;4179533;28;20101;-34
2021/12/26 04:36:02;;;;;;;0.20;0.15;;;;;;;;;;4179875;28;20044;-33
2021/12/26 04:38:03;;;;;;;0.63;0.30;;;;;;;;;;4196785;28;20110;-33
2021/12/26 04:40:07;;;;;;;0.20;0.10;;;;;;;;;;4197498;28;20049;-34
2021/12/26 04:42:19;;;;;;;0.13;0.10;;;;;;;;;;4196206;28;20052;-33
2021/12/26 04:44:37;;;;;;;0.10;0.10;;;;;;;;;;4179651;28;20052;-33
2021/12/26 04:47:13;;;;;;;0.10;0.10;;;;;;;;;;4195808;28;20142;-33
2021/12/26 04:49:15;;;;;;;0.10;0.10;;;;;;;;;;4197168;28;20189;-33
2021/12/26 04:51:16;;;;;;;0.25;0.25;;;;;;;;;;4197325;28;20184;-33
2021/12/26 04:53:19;;;;;;;0.25;0.20;;;;;;;;;;4195329;28;20094;-34
2021/12/26 04:55:22;;;;;;;0.20;0.15;;;;;;;;;;4197376;28;20674;-33
2021/12/26 04:57:23;;;;;;;0.10;0.10;;;;;;;;;;4179447;28;20045;-33
2021/12/26 04:59:26;;;;;;;0.20;0.10;;;;;;;;;;4179100;28;20118;-34
2021/12/26 05:01:28;;;;;;;0.38;0.17;;;;;;;;;;4179425;28;20092;-33
2021/12/26 05:03:29;;;;;;;0.25;0.20;;;;;;;;;;4179166;28;20045;-37
2021/12/26 05:05:30;;;;;;;0.20;0.20;;;;;;;;;;4197056;28;20086;-33
2021/12/26 05:07:32;;;;;;;0.15;0.13;;;;;;;;;;4178727;28;20460;-34
2021/12/26 05:09:33;;;;;;;0.20;0.20;;;;;;;;;;4197199;28;20094;-33
2021/12/26 05:11:36;;;;;;;0.20;0.20;;;;;;;;;;4197075;28;20480;-34
2021/12/26 05:13:37;;;;;;;0.10;0.10;;;;;;;;;;4196865;28;20048;-33
2021/12/26 05:15:38;;;;;;;0.10;0.10;;;;;;;;;;4197202;28;20052;-33
2021/12/26 05:17:42;;;;;;;0.15;0.15;;;;;;;;;;4196708;28;20056;-34
2021/12/26 05:19:45;;;;;;;0.00;0.00;;;;;;;;;;4195582;28;20045;-34
2021/12/26 05:21:46;;;;;;;0.43;0.10;;;;;;;;;;4162069;28;20049;-33
2021/12/26 05:23:47;;;;;;;0.10;0.10;;;;;;;;;;4196711;28;20610;-33
2021/12/26 05:25:48;;;;;;;0.10;0.10;;;;;;;;;;4195890;28;20056;-33
2021/12/26 05:27:50;;;;;;;0.10;0.10;;;;;;;;;;4191619;28;20114;-33
2021/12/26 05:29:52;;;;;;;0.45;0.15;;;;;;;;;;4178514;28;20061;-33
2021/12/26 05:31:53;;;;;;;0.20;0.10;;;;;;;;;;4178828;28;20049;-33
2021/12/26 05:33:54;;;;;;;0.20;0.20;;;;;;;;;;4179024;28;20048;-33
2021/12/26 05:35:56;;;;;;;0.15;0.10;;;;;;;;;;4182286;28;20463;-33
2021/12/26 05:37:58;;;;;;;0.05;0.05;;;;;;;;;;4194902;28;20512;-33
2021/12/26 05:40:02;;;;;;;0.28;0.10;;;;;;;;;;4195445;28;20404;-33
2021/12/26 05:42:04;;;;;;;0.10;0.10;;;;;;;;;;4195206;28;20086;-34
2021/12/26 05:44:08;;;;;;;0.10;0.10;;;;;;;;;;4194226;28;20423;-33
2021/12/26 05:46:10;;;;;;;0.22;0.20;;;;;;;;;;4195413;28;20106;-33
2021/12/26 05:48:11;;;;;;;1.08;0.28;;;;;;;;;;4195227;28;20076;-34
2021/12/26 05:50:15;;;;;;;0.10;0.10;;;;;;;;;;4212126;28;20040;-34
2021/12/26 05:52:18;;;;;;;0.20;0.20;;;;;;;;;;4213046;28;20060;-33
2021/12/26 05:54:32;;;;;;;0.10;0.10;;;;;;;;;;4195283;28;20048;-33
2021/12/26 05:56:33;;;;;;;0.30;0.20;;;;;;;;;;4178704;28;20053;-33
2021/12/26 05:58:34;;;;;;;0.10;0.10;;;;;;;;;;4195306;28;20476;-33
2021/12/26 06:00:36;;;;;;;0.50;0.20;;;;;;;;;;4195526;28;20044;-34
2021/12/26 06:02:37;;;;;;;0.45;0.20;;;;;;;;;;4178072;28;20501;-33
2021/12/26 06:04:39;;;;;;;0.30;0.10;;;;;;;;;;4213251;28;20119;-33
2021/12/26 06:06:43;;;;;;;0.10;0.10;;;;;;;;;;4194858;28;20098;-33
2021/12/26 06:08:45;;;;;;;0.10;0.10;;;;;;;;;;4195261;28;20052;-33
2021/12/26 06:10:47;;;;;;;0.10;0.10;;;;;;;;;;4194713;28;20415;-32
2021/12/26 06:12:49;;;;;;;0.68;0.25;;;;;;;;;;4195241;28;20113;-33
2021/12/26 06:14:50;;;;;;;0.10;0.10;;;;;;;;;;4213071;28;20458;-33
2021/12/26 06:16:51;;;;;;;0.10;0.10;;;;;;;;;;4195278;28;20052;-34
2021/12/26 06:19:12;;;;;;;0.17;0.10;;;;;;;;;;4212959;28;20113;-33
2021/12/26 06:21:33;;;;;;;0.28;0.20;;;;;;;;;;4213011;28;20070;-33
2021/12/26 06:24:12;;;;;;;0.10;0.10;;;;;;;;;;4160606;28;20054;-34
2021/12/26 06:26:42;;;;;;;0.10;0.10;;;;;;;;;;4156827;28;20084;-33
2021/12/26 06:28:59;;;;;;;0.20;0.20;;;;;;;;;;4177282;28;20044;-33
2021/12/26 06:31:15;;;;;;;0.10;0.10;;;;;;;;;;4212589;28;20052;-34
2021/12/26 06:33:43;;;;;;;0.20;0.10;;;;;;;;;;4161195;28;20052;-34
2021/12/26 06:36:02;;;;;;;0.10;0.10;;;;;;;;;;4213267;28;20101;-33
2021/12/26 06:38:21;;;;;;;0.05;0.05;;;;;;;;;;4212388;28;20052;-34
2021/12/26 06:40:41;;;;;;;0.10;0.10;;;;;;;;;;4214776;28;20044;-33
2021/12/26 06:43:11;;;;;;;0.20;0.20;;;;;;;;;;4215863;28;20059;-33
2021/12/26 06:45:47;;;;;;;0.57;0.22;;;;;;;;;;4188164;28;20113;-34
2021/12/26 06:48:24;;;;;;;0.45;0.10;;;;;;;;;;4164025;28;20041;-33
2021/12/26 06:50:25;;;;;;;0.25;0.10;;;;;;;;;;4182575;28;20048;-34
2021/12/26 06:52:26;;;;;;;0.20;0.20;;;;;;;;;;4215645;28;20097;-33
2021/12/26 06:54:27;;;;;;;0.10;0.10;;;;;;;;;;4215562;28;20083;-33
2021/12/26 06:56:27;;;;;;;0.10;0.10;;;;;;;;;;4215998;28;20100;-33
2021/12/26 06:58:29;;;;;;;0.10;0.10;;;;;;;;;;4197772;28;20045;-34
2021/12/26 07:00:30;;;;;;;0.13;0.10;;;;;;;;;;4215728;28;20478;-34
2021/12/26 07:02:30;;;;;;;0.10;0.10;;;;;;;;;;4197833;28;20045;-33
2021/12/26 07:04:33;;;;;;;0.17;0.17;;;;;;;;;;4197652;28;20090;-33
2021/12/26 07:06:34;;;;;;;0.10;0.10;;;;;;;;;;4197947;28;20063;-34
2021/12/26 07:08:42;;;;;;;0.25;0.15;;;;;;;;;;4197452;28;20052;-33
2021/12/26 07:10:44;;;;;;;0.10;0.10;;;;;;;;;;4197613;28;20429;-33
2021/12/26 07:12:45;;;;;;;0.20;0.10;;;;;;;;;;4197538;28;20052;-34
2021/12/26 07:15:08;;;;;;;0.10;0.10;;;;;;;;;;4197664;28;20048;-33
2021/12/26 07:17:14;;;;;;;0.15;0.10;;;;;;;;;;4197387;28;20508;-33
2021/12/26 07:19:19;;;;;;;0.20;0.15;;;;;;;;;;4197431;28;20049;-33
2021/12/26 07:21:20;;;;;;;0.20;0.10;;;;;;;;;;4197653;28;20052;-33
2021/12/26 07:23:35;;;;;;;0.10;0.10;;;;;;;;;;4196723;28;20064;-33
2021/12/26 07:25:42;;;;;;;0.50;0.20;;;;;;;;;;4197336;28;20496;-33
2021/12/26 07:27:43;;;;;;;0.30;0.10;;;;;;;;;;4197110;28;20052;-33
2021/12/26 07:30:03;;;;;;;0.08;0.08;;;;;;;;;;4198776;28;20057;-34
2021/12/26 07:32:08;;;;;;;0.00;0.00;;;;;;;;;;4197184;28;20056;-33
2021/12/26 07:34:09;;;;;;;0.10;0.10;;;;;;;;;;4197234;28;20459;-33
2021/12/26 07:36:10;;;;;;;0.10;0.10;;;;;;;;;;4198247;28;20071;-34
2021/12/26 07:38:11;;;;;;;0.57;0.20;;;;;;;;;;4197903;28;20135;-34
2021/12/26 07:40:13;;;;;;;0.10;0.10;;;;;;;;;;4197125;28;20044;-33
2021/12/26 07:42:14;;;;;;;0.05;0.03;;;;;;;;;;4196959;28;20110;-33
2021/12/26 07:44:47;;;;;;;0.28;0.10;;;;;;;;;;4198286;28;20484;-34
2021/12/26 07:47:12;;;;;;;0.10;0.10;;;;;;;;;;4192591;28;20048;-34
2021/12/26 07:49:13;;;;;;;0.13;0.10;;;;;;;;;;4197026;28;20045;-34
2021/12/26 07:51:32;;;;;;;0.10;0.10;;;;;;;;;;4198255;28;20060;-34
2021/12/26 07:53:52;;;;;;;0.10;0.10;;;;;;;;;;4198396;28;20109;-34
2021/12/26 07:56:11;;;;;;;0.10;0.10;;;;;;;;;;4198060;28;20052;-34
2021/12/26 07:58:31;;;;;;;0.10;0.10;;;;;;;;;;4198244;28;20152;-34
2021/12/26 08:00:52;;;;;;;0.10;0.10;;;;;;;;;;4176809;28;20052;-34
2021/12/26 08:03:16;;;;;;;0.17;0.17;;;;;;;;;;4196559;28;20051;-34
2021/12/26 08:05:35;;;;;;;0.20;0.15;;;;;;;;;;4197141;28;20057;-34
2021/12/26 08:07:51;;;;;;;0.30;0.20;;;;;;;;;;4196150;28;20052;-35
2021/12/26 08:09:52;;;;;;;0.28;0.20;;;;;;;;;;4180263;28;20075;-35
2021/12/26 08:11:54;;;;;;;0.30;0.22;;;;;;;;;;4213082;28;20387;-35
2021/12/26 08:13:55;;;;;;;0.17;0.17;;;;;;;;;;4196497;28;20056;-35
2021/12/26 08:15:56;;;;;;;0.30;0.15;;;;;;;;;;4197789;28;20058;-35
2021/12/26 08:17:56;;;;;;;0.10;0.10;;;;;;;;;;4197593;28;20097;-35
2021/12/26 08:19:58;;;;;;;0.10;0.10;;;;;;;;;;4197642;28;20056;-35
2021/12/26 08:21:59;;;;;;;0.32;0.10;;;;;;;;;;4197182;28;20052;-34
2021/12/26 08:24:00;;;;;;;0.57;0.15;;;;;;;;;;4208420;28;20120;-34
2021/12/26 08:26:02;;;;;;;0.10;0.10;;;;;;;;;;4214526;28;20105;-35
2021/12/26 08:28:03;;;;;;;0.13;0.13;;;;;;;;;;4214348;28;20052;-35
2021/12/26 08:30:04;;;;;;;0.10;0.10;;;;;;;;;;4214150;28;20484;-34
2021/12/26 08:32:06;;;;;;;0.45;0.17;;;;;;;;;;4214115;28;20048;-34
2021/12/26 08:34:07;;;;;;;0.30;0.10;;;;;;;;;;4214089;28;20059;-34
2021/12/26 08:36:08;;;;;;;0.17;0.10;;;;;;;;;;4214264;28;20052;-34
2021/12/26 08:38:09;;;;;;;0.10;0.10;;;;;;;;;;4213619;28;20096;-34
2021/12/26 08:40:10;;;;;;;0.15;0.15;;;;;;;;;;4214209;28;20048;-34
2021/12/26 08:42:13;;;;;;;0.40;0.20;;;;;;;;;;4213904;28;20048;-34
2021/12/26 08:44:16;;;;;;;0.17;0.10;;;;;;;;;;4213934;28;20385;-34
2021/12/26 08:46:17;;;;;;;0.28;0.20;;;;;;;;;;4213942;28;20048;-34
2021/12/26 08:48:18;;;;;;;0.20;0.10;;;;;;;;;;4213865;28;20094;-35
2021/12/26 08:50:21;;;;;;;0.10;0.10;;;;;;;;;;4213982;28;20056;-34
2021/12/26 08:52:22;;;;;;;0.47;0.10;;;;;;;;;;4213368;28;20124;-34
2021/12/26 08:54:26;;;;;;;0.10;0.10;;;;;;;;;;4213780;28;20048;-34
2021/12/26 08:56:27;;;;;;;1.05;0.20;;;;;;;;;;4213823;28;20052;-34
2021/12/26 08:58:28;;;;;;;0.10;0.10;;;;;;;;;;4195747;28;20107;-34
2021/12/26 09:00:30;;;;;;;0.10;0.10;;;;;;;;;;4195881;28;20048;-35
2021/12/26 09:02:31;;;;;;;0.10;0.10;;;;;;;;;;4213526;28;20052;-34
2021/12/26 09:04:31;;;;;;;0.40;0.15;;;;;;;;;;4213633;28;20065;-35
2021/12/26 09:06:32;;;;;;;0.15;0.15;;;;;;;;;;4213804;28;20087;-34
2021/12/26 09:08:33;;;;;;;0.20;0.10;;;;;;;;;;4195536;28;20155;-34
2021/12/26 09:10:34;;;;;;;0.10;0.10;;;;;;;;;;4213645;28;20113;-34
2021/12/26 09:12:35;;;;;;;0.20;0.10;;;;;;;;;;4195778;28;20068;-34
2021/12/26 09:14:36;;;;;;;0.20;0.20;;;;;;;;;;4213534;28;20476;-34
2021/12/26 09:16:37;;;;;;;0.10;0.10;;;;;;;;;;4213883;28;20055;-35
2021/12/26 09:18:39;;;;;;;0.10;0.10;;;;;;;;;;4195867;28;20562;-35
2021/12/26 09:20:40;;;;;;;0.20;0.10;;;;;;;;;;4213391;28;20043;-34
2021/12/26 09:22:42;;;;;;;0.13;0.10;;;;;;;;;;4213057;28;20189;-34
2021/12/26 09:24:44;;;;;;;1.63;0.17;;;;;;;;;;4195488;28;20503;-34
2021/12/26 09:26:45;;;;;;;0.10;0.10;;;;;;;;;;4213429;28;20113;-35
2021/12/26 09:28:46;;;;;;;0.10;0.10;;;;;;;;;;4213458;28;20525;-34
2021/12/26 09:30:47;;;;;;;0.10;0.10;;;;;;;;;;4213739;28;20048;-34
2021/12/26 09:32:49;;;;;;;0.20;0.10;;;;;;;;;;4213559;28;20463;-34
2021/12/26 09:34:50;;;;;;;0.20;0.10;;;;;;;;;;4213227;28;20495;-34
2021/12/26 09:36:51;;;;;;;0.95;0.20;;;;;;;;;;4213064;28;20048;-34
2021/12/26 09:38:52;;;;;;;1.23;0.10;;;;;;;;;;4188247;28;20357;-35
2021/12/26 09:40:53;;;;;;;0.20;0.20;;;;;;;;;;4226012;28;20051;-34
2021/12/26 09:42:54;;;;;;;0.20;0.10;;;;;;;;;;4212938;28;20136;-35
2021/12/26 09:44:58;;;;;;;0.10;0.10;;;;;;;;;;4225579;28;20539;-34
2021/12/26 09:46:59;;;;;;;0.22;0.20;;;;;;;;;;4217100;28;20051;-34
2021/12/26 09:49:00;;;;;;;0.10;0.10;;;;;;;;;;4223846;28;20487;-35
2021/12/26 09:51:01;;;;;;;0.80;0.10;;;;;;;;;;4213707;28;20110;-34
2021/12/26 09:53:02;;;;;;;1.65;0.17;;;;;;;;;;4212742;28;20105;-34
2021/12/26 09:55:03;;;;;;;0.38;0.17;;;;;;;;;;4213079;28;20369;-34
2021/12/26 09:57:05;;;;;;;1.95;0.25;;;;;;;;;;4212974;28;20111;-34
2021/12/26 09:59:08;;;;;;;0.22;0.15;;;;;;;;;;4212907;28;20482;-34
2021/12/26 10:01:10;;;;;;;3.03;0.20;;;;;;;;;;4213404;28;20064;-34
2021/12/26 10:03:22;;;;;;;0.20;0.20;;;;;;;;;;4213083;28;20044;-34
2021/12/26 10:05:23;;;;;;;0.10;0.10;;;;;;;;;;4213483;28;20059;-35
2021/12/26 10:07:25;;;;;;;0.20;0.10;;;;;;;;;;4213096;28;20048;-35
2021/12/26 10:09:26;;;;;;;1.30;0.20;;;;;;;;;;4213327;28;20059;-34
2021/12/26 10:11:29;;;;;;;0.30;0.10;;;;;;;;;;4213402;28;20052;-34
2021/12/26 10:13:56;;;;;;;0.20;0.10;;;;;;;;;;4213544;28;20060;-34
2021/12/26 10:16:01;;;;;;;0.20;0.20;;;;;;;;;;4214595;28;20052;-35
2021/12/26 10:18:21;;;;;;;0.30;0.10;;;;;;;;;;4216645;28;20052;-35
2021/12/26 10:20:33;;;;;;;0.10;0.10;;;;;;;;;;4216575;28;20052;-34
2021/12/26 10:22:34;;;;;;;0.10;0.10;;;;;;;;;;4215910;28;20322;-35
2021/12/26 10:24:37;;;;;;;0.30;0.20;;;;;;;;;;4232421;28;20055;-35
2021/12/26 10:26:40;;;;;;;0.28;0.20;;;;;;;;;;4233371;28;20047;-34
2021/12/26 10:28:41;;;;;;;0.20;0.20;;;;;;;;;;4233133;28;20044;-35
2021/12/26 10:30:42;;;;;;;0.10;0.10;;;;;;;;;;4233236;28;20478;-35
2021/12/26 10:32:43;;;;;;;0.20;0.10;;;;;;;;;;4233212;28;20043;-35
2021/12/26 10:34:58;;;;;;;0.10;0.10;;;;;;;;;;4223561;28;20040;-35
2021/12/26 10:37:10;;;;;;;0.10;0.10;;;;;;;;;;4207533;28;20052;-34
2021/12/26 10:39:12;;;;;;;0.10;0.10;;;;;;;;;;4214470;28;20074;-35
2021/12/26 10:41:23;;;;;;;0.25;0.10;;;;;;;;;;4233265;28;20070;-35
2021/12/26 10:43:42;;;;;;;0.10;0.10;;;;;;;;;;4233107;28;20047;-34
2021/12/26 10:45:43;;;;;;;0.30;0.10;;;;;;;;;;4233432;28;20056;-35
2021/12/26 10:47:48;;;;;;;1.55;0.10;;;;;;;;;;4233116;28;20048;-34
2021/12/26 10:49:54;;;;;;;0.10;0.10;;;;;;;;;;4232892;28;20052;-35
2021/12/26 10:51:55;;;;;;;0.30;0.20;;;;;;;;;;4232854;28;20052;-35
2021/12/26 10:54:13;;;;;;;0.10;0.10;;;;;;;;;;4232826;28;20388;-35
2021/12/26 10:56:20;;;;;;;1.35;0.10;;;;;;;;;;4233050;28;20047;-35
2021/12/26 10:58:23;;;;;;;0.10;0.10;;;;;;;;;;4232872;28;20050;-35
2021/12/26 11:00:28;;;;;;;0.30;0.20;;;;;;;;;;4232880;28;20048;-35
2021/12/26 11:02:30;;;;;;;0.10;0.10;;;;;;;;;;4232808;28;20044;-35
2021/12/26 11:04:31;;;;;;;0.10;0.08;;;;;;;;;;4232766;28;20039;-35
2021/12/26 11:06:52;;;;;;;0.20;0.20;;;;;;;;;;4232956;28;20047;-34
2021/12/26 11:08:53;;;;;;;0.30;0.20;;;;;;;;;;4232633;28;20048;-35
2021/12/26 11:10:55;;;;;;;0.10;0.10;;;;;;;;;;4232590;28;20096;-36
2021/12/26 11:12:57;;;;;;;0.10;0.10;;;;;;;;;;4208099;28;20526;-36
2021/12/26 11:14:59;;;;;;;0.50;0.10;;;;;;;;;;4219116;28;20088;-35
2021/12/26 11:16:59;;;;;;;0.68;0.10;;;;;;;;;;4216885;28;20059;-35
2021/12/26 11:19:01;;;;;;;0.57;0.15;;;;;;;;;;4225257;28;20047;-35
2021/12/26 11:21:11;;;;;;;0.10;0.10;;;;;;;;;;4231938;28;20090;-35
2021/12/26 11:23:15;;;;;;;0.10;0.10;;;;;;;;;;4231767;28;20100;-35
2021/12/26 11:25:16;;;;;;;0.15;0.13;;;;;;;;;;4232224;28;20380;-34
2021/12/26 11:27:17;;;;;;;0.38;0.10;;;;;;;;;;4231657;28;20098;-35
2021/12/26 11:29:18;;;;;;;0.10;0.10;;;;;;;;;;4232587;28;20094;-35
2021/12/26 11:31:20;;;;;;;0.20;0.10;;;;;;;;;;4232364;28;20091;-35
2021/12/26 11:33:21;;;;;;;0.15;0.15;;;;;;;;;;4232054;28;20067;-35
2021/12/26 11:35:22;;;;;;;0.20;0.10;;;;;;;;;;4232103;28;20105;-35
2021/12/26 11:37:24;;;;;;;0.20;0.20;;;;;;;;;;4231673;28;20381;-36
2021/12/26 11:39:51;;;;;;;0.10;0.10;;;;;;;;;;4193098;28;20058;-35
2021/12/26 11:42:21;;;;;;;0.15;0.10;;;;;;;;;;4232014;28;20395;-34
2021/12/26 11:44:53;;;;;;;0.10;0.10;;;;;;;;;;4231952;28;20051;-36
2021/12/26 11:47:36;;;;;;;0.20;0.00;;;;;;;;;;4232232;28;20043;-35
2021/12/26 11:50:13;;;;;;;0.10;0.10;;;;;;;;;;4202681;28;20047;-35
2021/12/26 11:52:43;;;;;;;0.08;0.00;;;;;;;;;;4231437;28;20074;-35
2021/12/26 11:55:48;;;;;;;0.20;0.20;;;;;;;;;;4211494;28;20399;-36
2021/12/26 11:57:58;;;;;;;0.20;0.20;;;;;;;;;;4163115;28;20053;-35
2021/12/26 12:00:06;;;;;;;0.10;0.10;;;;;;;;;;4163382;28;20060;-35
2021/12/26 12:02:32;;;;;;;0.10;0.10;;;;;;;;;;4156229;28;20386;-35
2021/12/26 12:04:35;;;;;;;0.22;0.20;;;;;;;;;;4231902;28;20043;-36
2021/12/26 12:06:36;;;;;;;0.13;0.10;;;;;;;;;;4231649;28;20051;-34
2021/12/26 12:08:37;;;;;;;0.10;0.10;;;;;;;;;;4231232;28;20427;-35
2021/12/26 12:10:37;;;;;;;0.10;0.10;;;;;;;;;;4231524;28;20617;-34
2021/12/26 12:12:42;;;;;;;0.13;0.10;;;;;;;;;;4231744;28;20058;-34
2021/12/26 12:14:45;;;;;;;0.25;0.10;;;;;;;;;;4231477;28;20047;-35
2021/12/26 12:16:46;;;;;;;0.30;0.20;;;;;;;;;;4231232;28;20051;-35
2021/12/26 12:18:48;;;;;;;0.28;0.10;;;;;;;;;;4231326;28;20040;-35
2021/12/26 12:21:07;;;;;;;0.00;0.00;;;;;;;;;;4231443;28;20488;-35
2021/12/26 12:23:15;;;;;;;0.30;0.10;;;;;;;;;;4212747;28;20048;-35
2021/12/26 12:25:36;;;;;;;0.10;0.10;;;;;;;;;;4231420;28;20056;-34
2021/12/26 12:27:57;;;;;;;0.15;0.15;;;;;;;;;;4231151;28;20077;-34
2021/12/26 12:29:57;;;;;;;0.10;0.10;;;;;;;;;;4231311;28;20051;-35
2021/12/26 12:32:07;;;;;;;0.22;0.22;;;;;;;;;;4231164;28;20102;-34
2021/12/26 12:34:08;;;;;;;;;;;;;;;;;;4231744;28;20047;-37
2021/12/26 12:36:11;;;;;;;0.15;0.10;;;;;;;;;;4231198;28;20370;-34